createdAt,value
2022-08-11T00:01:39.471Z,67.97
2022-08-11T00:03:56.997Z,67.80
2022-08-11T00:06:00.783Z,67.55
2022-08-11T00:08:06.681Z,67.91
2022-08-11T00:10:12.981Z,67.64
2022-08-11T00:12:18.239Z,67.71
2022-08-11T00:14:24.866Z,67.27
2022-08-11T00:16:42.037Z,67.22
2022-08-11T00:18:47.961Z,67.73
2022-08-11T00:20:53.308Z,67.29
2022-08-11T00:23:04.346Z,67.42
2022-08-11T00:25:12.436Z,67.92
2022-08-11T00:27:15.976Z,67.61
2022-08-11T00:29:20.080Z,67.96
2022-08-11T00:31:28.944Z,67.86
2022-08-11T00:33:41.202Z,67.62
2022-08-11T00:35:57.292Z,67.88
2022-08-11T00:38:04.244Z,67.97
2022-08-11T00:40:18.215Z,68.10
2022-08-11T00:42:37.023Z,68.78
2022-08-11T00:44:56.572Z,68.86
2022-08-11T00:47:16.137Z,68.49
2022-08-11T00:49:30.939Z,69.20
2022-08-11T00:52:04.743Z,68.93
2022-08-11T00:54:45.166Z,68.93
2022-08-11T00:57:37.006Z,69.21
2022-08-11T01:00:06.797Z,69.33
2022-08-11T01:02:20.782Z,70.84
2022-08-11T01:05:08.449Z,69.67
2022-08-11T01:08:01.243Z,69.18
2022-08-11T01:10:32.809Z,69.61
2022-08-11T01:12:47.225Z,69.39
2022-08-11T01:15:40.343Z,69.38
2022-08-11T01:18:13.172Z,69.26
2022-08-11T01:20:52.843Z,69.52
2022-08-11T01:23:23.388Z,69.73
2022-08-11T01:25:57.101Z,69.60
2022-08-11T01:28:48.467Z,69.89
2022-08-11T01:31:37.323Z,70.51
2022-08-11T01:34:17.313Z,71.24
2022-08-11T01:36:59.084Z,70.88
2022-08-11T01:39:35.103Z,71.42
2022-08-11T01:42:34.506Z,72.98
2022-08-11T01:45:03.712Z,71.49
2022-08-11T01:47:53.506Z,70.91
2022-08-11T01:50:10.282Z,70.58
2022-08-11T01:52:33.613Z,70.83
2022-08-11T01:54:49.124Z,70.78
2022-08-11T01:57:11.301Z,70.69
2022-08-11T01:59:21.697Z,70.54
2022-08-11T02:01:45.882Z,71.11
2022-08-11T02:03:56.505Z,71.46
2022-08-11T02:06:25.376Z,71.72
2022-08-11T02:08:44.826Z,72.52
2022-08-11T02:11:17.533Z,72.16
2022-08-11T02:13:38.997Z,72.19
2022-08-11T02:15:48.899Z,72.38
2022-08-11T02:18:01.875Z,72.36
2022-08-11T02:20:33.270Z,71.95
2022-08-11T02:23:05.248Z,72.11
2022-08-11T02:25:13.405Z,72.19
2022-08-11T02:27:24.682Z,72.37
2022-08-11T02:29:34.736Z,72.59
2022-08-11T02:32:24.895Z,72.28
2022-08-11T02:34:59.864Z,72.48
2022-08-11T02:37:23.542Z,72.28
2022-08-11T02:39:33.418Z,72.06
2022-08-11T02:42:08.960Z,72.13
2022-08-11T02:44:43.661Z,71.58
2022-08-11T02:47:08.537Z,72.10
2022-08-11T02:49:37.359Z,72.07
2022-08-11T02:51:53.911Z,72.26
2022-08-11T02:54:09.924Z,72.37
2022-08-11T02:56:27.008Z,72.64
2022-08-11T02:58:41.000Z,73.48
2022-08-11T03:00:58.378Z,72.76
2022-08-11T03:03:20.295Z,73.18
2022-08-11T03:05:34.599Z,72.78
2022-08-11T03:07:52.992Z,72.99
2022-08-11T03:10:04.458Z,72.95
2022-08-11T03:12:40.827Z,73.19
2022-08-11T03:15:08.727Z,72.98
2022-08-11T03:17:26.415Z,73.27
2022-08-11T03:19:44.017Z,73.50
2022-08-11T03:22:06.385Z,73.73
2022-08-11T03:24:17.129Z,73.75
2022-08-11T03:26:29.393Z,74.14
2022-08-11T03:28:38.054Z,74.39
2022-08-11T03:30:52.149Z,74.81
2022-08-11T03:33:27.021Z,74.69
2022-08-11T03:35:36.307Z,74.44
2022-08-11T03:37:52.980Z,74.26
2022-08-11T03:40:04.607Z,74.46
2022-08-11T03:42:16.571Z,74.84
2022-08-11T03:44:35.751Z,75.07
2022-08-11T03:46:57.764Z,75.18
2022-08-11T03:49:12.953Z,75.76
2022-08-11T03:51:24.302Z,75.46
2022-08-11T03:53:45.495Z,75.49
2022-08-11T03:56:21.963Z,75.53
2022-08-11T03:58:56.591Z,75.19
2022-08-11T04:01:39.206Z,75.89
2022-08-11T04:03:59.805Z,74.82
2022-08-11T04:06:30.614Z,74.90
2022-08-11T04:09:16.860Z,74.88
2022-08-11T04:11:47.995Z,74.41
2022-08-11T04:14:47.728Z,74.92
2022-08-11T04:17:19.869Z,74.58
2022-08-11T04:19:58.832Z,75.41
2022-08-11T04:22:48.532Z,75.56
2022-08-11T04:25:16.477Z,75.30
2022-08-11T04:27:50.672Z,75.69
2022-08-11T04:30:09.180Z,75.96
2022-08-11T04:32:36.553Z,75.39
2022-08-11T04:35:14.166Z,75.42
2022-08-11T04:37:53.515Z,75.22
2022-08-11T04:40:33.709Z,75.37
2022-08-11T04:43:32.030Z,75.71
2022-08-11T04:46:01.241Z,75.62
2022-08-11T04:48:42.120Z,75.54
2022-08-11T04:51:21.145Z,75.61
2022-08-11T04:53:59.408Z,75.82
2022-08-11T04:56:27.216Z,75.97
2022-08-11T04:59:08.530Z,75.78
2022-08-11T05:01:43.739Z,75.64
2022-08-11T05:04:28.522Z,75.86
2022-08-11T05:07:04.078Z,76.18
2022-08-11T05:09:32.754Z,76.14
2022-08-11T05:12:01.509Z,76.54
2022-08-11T05:14:46.932Z,76.45
2022-08-11T05:17:13.259Z,76.07
2022-08-11T05:19:36.191Z,76.16
2022-08-11T05:22:01.157Z,76.43
2022-08-11T05:24:26.963Z,76.21
2022-08-11T05:26:54.369Z,76.61
2022-08-11T05:29:23.523Z,77.08
2022-08-11T05:31:51.418Z,77.05
2022-08-11T05:34:18.115Z,76.80
2022-08-11T05:36:30.287Z,76.37
2022-08-11T05:38:55.009Z,76.13
2022-08-11T05:41:17.203Z,76.14
2022-08-11T05:43:38.850Z,75.93
2022-08-11T05:46:23.633Z,76.09
2022-08-11T05:48:51.004Z,76.09
2022-08-11T05:51:16.497Z,76.06
2022-08-11T05:53:45.933Z,75.93
2022-08-11T05:56:09.511Z,75.34
2022-08-11T05:58:15.068Z,75.57
2022-08-11T06:00:20.217Z,75.57
2022-08-11T06:02:25.600Z,75.24
2022-08-11T06:04:31.042Z,75.41
2022-08-11T06:06:35.354Z,75.14
2022-08-11T06:08:39.101Z,75.11
2022-08-11T06:10:44.748Z,75.04
2022-08-11T06:12:54.234Z,74.89
2022-08-11T06:15:02.257Z,74.73
2022-08-11T06:17:07.322Z,74.24
2022-08-11T06:19:13.403Z,73.96
2022-08-11T06:21:19.235Z,73.34
2022-08-11T06:23:25.408Z,71.00
2022-08-11T06:25:35.372Z,65.81
2022-08-11T06:27:40.721Z,61.51
2022-08-11T06:29:55.330Z,57.01
2022-08-11T06:32:01.418Z,53.99
2022-08-11T06:34:27.114Z,50.87
2022-08-11T06:36:37.081Z,48.65
2022-08-11T06:38:58.388Z,46.92
2022-08-11T06:41:26.273Z,45.36
2022-08-11T06:43:38.914Z,44.22
2022-08-11T06:45:50.596Z,43.37
2022-08-11T06:47:55.447Z,42.30
2022-08-11T06:50:19.756Z,41.15
2022-08-11T06:52:44.020Z,38.30
2022-08-11T06:55:04.436Z,39.17
2022-08-11T06:57:30.744Z,38.50
2022-08-11T06:59:53.409Z,37.56
2022-08-11T07:02:06.704Z,36.85
2022-08-11T07:04:12.621Z,36.95
2022-08-11T07:06:41.679Z,35.50
2022-08-11T07:09:54.619Z,34.94
2022-08-11T07:12:36.701Z,34.67
2022-08-11T07:15:05.724Z,35.45
2022-08-11T07:17:12.837Z,35.31
2022-08-11T07:19:38.890Z,35.08
2022-08-11T07:22:13.792Z,34.42
2022-08-11T07:24:59.298Z,34.48
2022-08-11T07:27:19.290Z,34.00
2022-08-11T07:29:24.094Z,33.81
2022-08-11T07:31:36.153Z,33.19
2022-08-11T07:34:06.463Z,34.40
2022-08-11T07:36:13.529Z,34.79
2022-08-11T07:38:25.288Z,34.42
2022-08-11T07:40:30.879Z,33.73
2022-08-11T07:42:38.893Z,33.53
2022-08-11T07:44:58.206Z,32.94
2022-08-11T07:47:19.839Z,33.02
2022-08-11T07:49:40.893Z,32.96
2022-08-11T07:52:03.316Z,32.61
2022-08-11T07:54:16.932Z,33.13
2022-08-11T07:56:21.922Z,32.91
2022-08-11T07:59:07.460Z,32.27
2022-08-11T08:01:30.706Z,31.46
2022-08-11T08:03:54.514Z,31.85
2022-08-11T08:06:28.671Z,32.29
2022-08-11T08:09:00.781Z,32.09
2022-08-11T08:11:26.105Z,31.92
2022-08-11T08:13:51.162Z,32.22
2022-08-11T08:16:13.431Z,32.54
2022-08-11T08:18:26.292Z,34.11
2022-08-11T08:20:34.245Z,36.49
2022-08-11T08:22:40.580Z,38.16
2022-08-11T08:24:46.453Z,39.33
2022-08-11T08:27:01.851Z,39.84
2022-08-11T08:29:26.206Z,40.70
2022-08-11T08:31:29.977Z,42.01
2022-08-11T08:33:34.377Z,42.72
2022-08-11T08:35:54.429Z,43.55
2022-08-11T08:38:00.963Z,44.17
2022-08-11T08:40:08.083Z,44.62
2022-08-11T08:42:17.920Z,44.84
2022-08-11T08:44:41.359Z,45.11
2022-08-11T08:46:50.336Z,45.69
2022-08-11T08:48:55.492Z,46.00
2022-08-11T08:51:22.661Z,46.18
2022-08-11T08:53:33.092Z,46.33
2022-08-11T08:55:37.051Z,46.78
2022-08-11T08:57:43.914Z,47.03
2022-08-11T08:59:51.544Z,46.90
2022-08-11T09:01:59.973Z,46.85
2022-08-11T09:04:11.797Z,46.99
2022-08-11T09:06:18.131Z,46.84
2022-08-11T09:08:23.449Z,47.21
2022-08-11T09:10:30.502Z,47.12
2022-08-11T09:12:36.413Z,47.07
2022-08-11T09:15:03.849Z,46.88
2022-08-11T09:17:07.729Z,46.83
2022-08-11T09:19:11.855Z,46.64
2022-08-11T09:21:39.321Z,46.41
2022-08-11T09:24:07.754Z,46.10
2022-08-11T09:26:31.947Z,45.41
2022-08-11T09:28:36.982Z,45.31
2022-08-11T09:30:44.798Z,45.24
2022-08-11T09:32:49.445Z,45.33
2022-08-11T09:34:54.439Z,44.93
2022-08-11T09:37:28.514Z,44.95
2022-08-11T09:40:00.128Z,44.46
2022-08-11T09:42:05.235Z,44.46
2022-08-11T09:44:28.193Z,43.96
2022-08-11T09:46:34.667Z,43.45
2022-08-11T09:48:42.762Z,42.90
2022-08-11T09:50:49.742Z,42.73
2022-08-11T09:53:34.708Z,42.64
2022-08-11T09:55:17.937Z,41.82
2022-08-11T09:57:39.820Z,41.23
2022-08-11T09:59:43.897Z,41.08
2022-08-11T10:01:52.306Z,40.83
2022-08-11T10:04:01.978Z,40.63
2022-08-11T10:06:34.039Z,40.80
2022-08-11T10:08:41.424Z,40.21
2022-08-11T10:10:47.425Z,39.85
2022-08-11T10:12:57.776Z,40.04
2022-08-11T10:15:23.450Z,39.89
2022-08-11T10:17:32.251Z,39.27
2022-08-11T10:19:38.022Z,39.08
2022-08-11T10:21:44.524Z,39.55
2022-08-11T10:24:06.108Z,39.67
2022-08-11T10:26:28.027Z,39.59
2022-08-11T10:29:02.189Z,39.45
2022-08-11T10:31:20.235Z,39.53
2022-08-11T10:33:52.097Z,39.48
2022-08-11T10:36:03.471Z,39.57
2022-08-11T10:38:20.478Z,38.87
2022-08-11T10:40:26.154Z,38.83
2022-08-11T10:42:57.948Z,38.53
2022-08-11T10:45:03.153Z,38.21
2022-08-11T10:47:26.195Z,37.54
2022-08-11T10:49:32.848Z,37.80
2022-08-11T10:51:58.920Z,37.77
2022-08-11T10:54:20.383Z,37.48
2022-08-11T10:56:42.147Z,37.15
2022-08-11T10:58:48.726Z,36.87
2022-08-11T11:00:57.065Z,36.98
2022-08-11T11:03:22.209Z,36.04
2022-08-11T11:05:32.070Z,35.62
2022-08-11T11:07:44.026Z,36.15
2022-08-11T11:09:50.949Z,35.92
2022-08-11T11:12:15.102Z,35.78
2022-08-11T11:14:46.215Z,34.99
2022-08-11T11:17:10.982Z,35.29
2022-08-11T11:19:20.979Z,35.86
2022-08-11T11:21:27.809Z,35.21
2022-08-11T11:23:47.555Z,35.82
2022-08-11T11:26:15.078Z,34.78
2022-08-11T11:28:36.135Z,35.36
2022-08-11T11:30:49.908Z,35.56
2022-08-11T11:33:04.437Z,35.18
2022-08-11T11:35:29.603Z,33.47
2022-08-11T11:37:36.014Z,33.68
2022-08-11T11:39:40.080Z,34.63
2022-08-11T11:41:44.350Z,34.97
2022-08-11T11:43:48.613Z,34.33
2022-08-11T11:45:53.174Z,33.84
2022-08-11T11:47:59.614Z,32.74
2022-08-11T11:50:04.433Z,32.33
2022-08-11T11:52:10.500Z,32.33
2022-08-11T11:54:16.452Z,32.46
2022-08-11T11:56:21.335Z,32.11
2022-08-11T11:58:43.293Z,31.80
2022-08-11T12:01:05.348Z,31.92
2022-08-11T12:03:11.795Z,32.33
2022-08-11T12:05:16.265Z,33.11
2022-08-11T12:07:37.894Z,32.65
2022-08-11T12:09:43.832Z,32.99
2022-08-11T12:12:05.188Z,33.18
2022-08-11T12:14:11.063Z,33.50
2022-08-11T12:16:33.990Z,32.97
2022-08-11T12:18:41.270Z,33.67
2022-08-11T12:20:46.621Z,33.47
2022-08-11T12:23:08.066Z,34.06
2022-08-11T12:25:31.080Z,33.46
2022-08-11T12:27:36.470Z,33.52
2022-08-11T12:29:45.487Z,33.50
2022-08-11T12:31:50.629Z,34.00
2022-08-11T12:33:56.258Z,33.93
2022-08-11T12:36:01.803Z,34.35
2022-08-11T12:38:09.927Z,33.89
2022-08-11T12:41:11.996Z,33.35
2022-08-11T12:43:38.935Z,32.54
2022-08-11T12:45:44.572Z,31.90
2022-08-11T12:49:00.283Z,32.35
2022-08-11T12:50:49.462Z,33.78
2022-08-11T12:52:57.228Z,34.48
2022-08-11T12:55:03.985Z,34.36
2022-08-11T12:57:37.438Z,34.37
2022-08-11T13:00:00.232Z,34.80
2022-08-11T13:02:22.673Z,34.83
2022-08-11T13:04:46.381Z,34.93
2022-08-11T13:06:54.382Z,35.42
2022-08-11T13:09:01.449Z,35.67
2022-08-11T13:11:24.082Z,35.93
2022-08-11T13:13:54.215Z,36.23
2022-08-11T13:15:53.811Z,36.21
2022-08-11T13:17:57.881Z,36.35
2022-08-11T13:20:04.292Z,36.38
2022-08-11T13:22:08.420Z,36.67
2022-08-11T13:24:12.281Z,36.72
2022-08-11T13:26:16.603Z,36.66
2022-08-11T13:28:21.523Z,36.46
2022-08-11T13:30:47.413Z,36.31
2022-08-11T13:32:53.465Z,36.05
2022-08-11T13:34:57.404Z,35.34
2022-08-11T13:37:04.594Z,35.18
2022-08-11T13:39:09.684Z,34.76
2022-08-11T13:41:42.405Z,34.59
2022-08-11T13:43:46.556Z,33.90
2022-08-11T13:45:53.218Z,34.06
2022-08-11T13:47:58.982Z,33.53
2022-08-11T13:50:03.453Z,32.83
2022-08-11T13:52:08.801Z,32.43
2022-08-11T13:54:19.037Z,33.06
2022-08-11T13:56:24.795Z,33.44
2022-08-11T13:58:39.874Z,33.82
2022-08-11T14:00:52.387Z,33.07
2022-08-11T14:02:59.339Z,32.79
2022-08-11T14:05:07.683Z,33.21
2022-08-11T14:07:15.911Z,32.87
2022-08-11T14:09:25.782Z,32.38
2022-08-11T14:12:21.920Z,32.58
2022-08-11T14:14:17.833Z,32.05
2022-08-11T14:16:26.381Z,31.81
2022-08-11T14:18:33.560Z,31.47
2022-08-11T14:20:57.950Z,31.04
2022-08-11T14:23:02.352Z,31.07
2022-08-11T14:25:07.462Z,31.02
2022-08-11T14:28:15.467Z,29.57
2022-08-11T14:29:45.158Z,28.51
2022-08-11T14:31:54.861Z,28.01
2022-08-11T14:34:04.480Z,27.39
2022-08-11T14:36:12.478Z,27.18
2022-08-11T14:38:17.725Z,26.94
2022-08-11T14:40:35.561Z,26.58
2022-08-11T14:42:57.040Z,26.46
2022-08-11T14:45:18.374Z,26.92
2022-08-11T14:47:25.193Z,26.87
2022-08-11T14:49:31.908Z,26.84
2022-08-11T14:51:36.128Z,27.02
2022-08-11T14:53:40.043Z,26.82
2022-08-11T14:56:20.629Z,26.47
2022-08-11T14:58:28.439Z,26.62
2022-08-11T15:00:34.510Z,26.99
2022-08-11T15:02:57.891Z,27.42
2022-08-11T15:05:03.184Z,27.20
2022-08-11T15:07:16.665Z,27.58
2022-08-11T15:09:20.934Z,27.52
2022-08-11T15:11:43.925Z,27.46
2022-08-11T15:13:48.122Z,27.02
2022-08-11T15:16:09.619Z,27.15
2022-08-11T15:18:16.061Z,27.04
2022-08-11T15:20:39.999Z,27.21
2022-08-11T15:23:01.359Z,27.54
2022-08-11T15:25:05.164Z,27.59
2022-08-11T15:27:31.368Z,27.78
2022-08-11T15:29:51.364Z,27.94
2022-08-11T15:32:13.500Z,27.52
2022-08-11T15:34:38.605Z,27.94
2022-08-11T15:37:04.894Z,28.00
2022-08-11T15:39:19.453Z,27.98
2022-08-11T15:41:54.345Z,27.88
2022-08-11T15:44:38.722Z,27.57
2022-08-11T15:46:53.784Z,27.78
2022-08-11T15:49:03.789Z,27.83
2022-08-11T15:51:11.610Z,28.02
2022-08-11T15:53:25.251Z,28.33
2022-08-11T15:55:32.702Z,28.34
2022-08-11T15:57:55.174Z,27.81
2022-08-11T16:00:18.521Z,27.91
2022-08-11T16:02:46.419Z,28.29
2022-08-11T16:04:51.251Z,28.37
2022-08-11T16:06:59.017Z,28.38
2022-08-11T16:09:06.670Z,28.66
2022-08-11T16:11:14.984Z,28.67
2022-08-11T16:13:37.560Z,28.49
2022-08-11T16:16:03.796Z,28.53
2022-08-11T16:18:09.233Z,28.62
2022-08-11T16:20:15.928Z,28.76
2022-08-11T16:22:32.822Z,28.92
2022-08-11T16:27:02.757Z,29.11
2022-08-11T16:27:13.159Z,29.22
2022-08-11T16:29:19.448Z,29.32
2022-08-11T16:31:24.144Z,29.51
2022-08-11T16:33:49.465Z,29.69
2022-08-11T16:36:12.426Z,29.95
2022-08-11T16:38:34.198Z,30.30
2022-08-11T16:40:40.614Z,30.21
2022-08-11T16:43:10.784Z,30.20
2022-08-11T16:45:32.949Z,30.20
2022-08-11T16:48:02.122Z,30.34
2022-08-11T16:50:01.386Z,30.25
2022-08-11T16:52:06.297Z,30.37
2022-08-11T16:54:11.552Z,30.32
2022-08-11T16:56:20.621Z,30.36
2022-08-11T16:58:42.696Z,30.54
2022-08-11T17:00:47.874Z,30.54
2022-08-11T17:03:10.771Z,30.51
2022-08-11T17:05:38.497Z,30.42
2022-08-11T17:08:02.477Z,30.46
2022-08-11T17:10:39.002Z,30.31
2022-08-11T17:13:12.694Z,30.44
2022-08-11T17:15:36.475Z,30.58
2022-08-11T17:17:41.421Z,30.48
2022-08-11T17:20:42.643Z,30.53
2022-08-11T17:22:31.948Z,30.61
2022-08-11T17:24:39.432Z,30.62
2022-08-11T17:26:57.229Z,30.27
2022-08-11T17:29:03.827Z,30.10
2022-08-11T17:31:28.099Z,30.11
2022-08-11T17:33:49.810Z,30.04
2022-08-11T17:35:54.129Z,29.95
2022-08-11T17:38:00.266Z,29.86
2022-08-11T17:40:08.506Z,29.98
2022-08-11T17:42:29.429Z,29.97
2022-08-11T17:44:53.568Z,30.12
2022-08-11T17:47:14.572Z,29.78
2022-08-11T17:49:20.520Z,29.89
2022-08-11T17:51:39.829Z,29.95
2022-08-11T17:54:23.765Z,30.10
2022-08-11T17:56:44.455Z,30.48
2022-08-11T17:59:09.566Z,30.63
2022-08-11T18:01:16.766Z,31.06
2022-08-11T18:03:30.234Z,30.99
2022-08-11T18:05:35.926Z,31.19
2022-08-11T18:07:58.670Z,31.44
2022-08-11T18:10:21.534Z,31.64
2022-08-11T18:12:42.981Z,31.95
2022-08-11T18:15:06.679Z,32.04
2022-08-11T18:17:28.734Z,32.15
2022-08-11T18:19:49.915Z,31.68
2022-08-11T18:22:16.357Z,31.25
2022-08-11T18:24:41.223Z,30.71
2022-08-11T18:27:04.305Z,30.16
2022-08-11T18:29:27.511Z,29.93
2022-08-11T18:31:52.900Z,29.77
2022-08-11T18:34:20.449Z,29.55
2022-08-11T18:36:47.317Z,29.26
2022-08-11T18:39:10.429Z,29.31
2022-08-11T18:41:33.729Z,29.29
2022-08-11T18:43:56.146Z,29.30
2022-08-11T18:46:21.399Z,29.40
2022-08-11T18:51:30.841Z,29.46
2022-08-11T18:54:00.223Z,29.46
2022-08-11T18:56:21.621Z,29.49
2022-08-11T18:58:47.128Z,29.48
2022-08-11T19:01:10.263Z,29.20
2022-08-11T19:03:43.174Z,29.36
2022-08-11T19:06:38.123Z,29.21
2022-08-11T19:08:52.739Z,29.37
2022-08-11T19:11:16.211Z,29.56
2022-08-11T19:13:43.630Z,29.77
2022-08-11T19:16:07.536Z,29.91
2022-08-11T19:18:33.994Z,30.28
2022-08-11T19:20:55.995Z,30.40
2022-08-11T19:23:18.554Z,30.30
2022-08-11T19:25:41.591Z,30.62
2022-08-11T19:28:05.874Z,30.55
2022-08-11T19:30:26.998Z,31.14
2022-08-11T19:32:50.297Z,31.54
2022-08-11T19:35:11.663Z,31.69
2022-08-11T19:37:33.158Z,32.09
2022-08-11T19:39:55.326Z,32.29
2022-08-11T19:42:19.045Z,32.26
2022-08-11T19:44:40.817Z,32.24
2022-08-11T19:47:02.636Z,32.41
2022-08-11T19:49:29.554Z,32.67
2022-08-11T19:51:54.187Z,33.03
2022-08-11T19:54:17.022Z,33.39
2022-08-11T19:56:39.983Z,33.61
2022-08-11T19:59:03.261Z,33.91
2022-08-11T20:01:25.194Z,34.20
2022-08-11T20:03:46.434Z,34.36
2022-08-11T20:06:08.432Z,34.20
2022-08-11T20:08:29.900Z,34.29
2022-08-11T20:10:53.300Z,34.22
2022-08-11T20:13:20.583Z,34.59
2022-08-11T20:15:46.010Z,34.78
2022-08-11T20:18:07.707Z,35.29
2022-08-11T20:20:31.845Z,35.66
2022-08-11T20:22:53.914Z,35.88
2022-08-11T20:25:15.568Z,36.21
2022-08-11T20:27:37.671Z,36.53
2022-08-11T20:30:00.488Z,36.92
2022-08-11T20:32:24.573Z,37.46
2022-08-11T20:34:46.065Z,37.72
2022-08-11T20:37:09.204Z,37.99
2022-08-11T20:39:32.246Z,38.33
2022-08-11T20:41:59.273Z,38.65
2022-08-11T20:44:21.474Z,39.14
2022-08-11T20:46:44.195Z,39.80
2022-08-11T20:49:08.968Z,40.19
2022-08-11T20:51:33.958Z,40.47
2022-08-11T20:54:05.695Z,41.23
2022-08-11T20:56:28.541Z,41.54
2022-08-11T21:01:38.714Z,42.17
2022-08-11T21:04:00.799Z,42.64
2022-08-11T21:06:26.331Z,43.03
2022-08-11T21:08:56.883Z,43.25
2022-08-11T21:11:28.035Z,43.53
2022-08-11T21:13:53.183Z,43.73
2022-08-11T21:16:25.337Z,44.09
2022-08-11T21:18:50.239Z,44.53
2022-08-11T21:21:16.433Z,45.07
2022-08-11T21:23:42.166Z,45.11
2022-08-11T21:26:06.791Z,45.48
2022-08-11T21:28:29.282Z,45.85
2022-08-11T21:30:54.009Z,45.97
2022-08-11T21:33:21.179Z,46.42
2022-08-11T21:35:45.236Z,46.45
2022-08-11T21:38:09.315Z,46.69
2022-08-11T21:40:35.089Z,47.39
2022-08-11T21:43:00.341Z,47.68
2022-08-11T21:45:22.319Z,47.78
2022-08-11T21:47:45.201Z,48.03
2022-08-11T21:50:07.057Z,48.09
2022-08-11T21:52:28.833Z,48.49
2022-08-11T21:54:50.659Z,48.79
2022-08-11T21:57:14.575Z,49.16
2022-08-11T21:59:40.802Z,48.92
2022-08-11T22:02:03.655Z,49.08
2022-08-11T22:04:26.345Z,49.61
2022-08-11T22:06:49.146Z,49.72
2022-08-11T22:09:10.070Z,50.07
2022-08-11T22:11:32.493Z,50.25
2022-08-11T22:14:06.345Z,50.45
2022-08-11T22:16:29.688Z,50.96
2022-08-11T22:18:53.967Z,51.38
2022-08-11T22:21:16.472Z,51.77
2022-08-11T22:23:59.749Z,51.96
2022-08-11T22:26:22.627Z,52.27
2022-08-11T22:28:44.182Z,52.81
2022-08-11T22:31:06.740Z,53.06
2022-08-11T22:33:28.992Z,52.54
2022-08-11T22:35:53.121Z,53.06
2022-08-11T22:38:16.156Z,53.09
2022-08-11T22:40:36.905Z,52.95
2022-08-11T22:42:57.712Z,53.44
2022-08-11T22:45:19.439Z,53.44
2022-08-11T22:47:45.207Z,54.01
2022-08-11T22:50:10.056Z,54.91
2022-08-11T22:52:33.295Z,55.01
2022-08-11T22:54:54.617Z,55.24
2022-08-11T22:57:16.698Z,55.46
2022-08-11T22:59:38.773Z,55.72
2022-08-11T23:02:00.141Z,55.62
2022-08-11T23:04:24.587Z,56.18
2022-08-11T23:06:46.074Z,56.10
2022-08-11T23:09:07.603Z,56.66
2022-08-11T23:11:28.785Z,56.75
2022-08-11T23:14:10.528Z,56.87
2022-08-11T23:16:31.854Z,56.93
2022-08-11T23:18:53.314Z,57.54
2022-08-11T23:21:16.662Z,57.99
2022-08-11T23:23:38.126Z,58.04
2022-08-11T23:26:00.898Z,58.23
2022-08-11T23:28:23.948Z,58.35
2022-08-11T23:30:46.131Z,58.28
2022-08-11T23:33:10.073Z,58.41
2022-08-11T23:35:39.970Z,58.93
2022-08-11T23:38:03.232Z,59.03
2022-08-11T23:40:24.832Z,59.80
2022-08-11T23:42:46.361Z,60.48
2022-08-11T23:45:09.684Z,60.43
2022-08-11T23:47:30.793Z,60.55
2022-08-11T23:49:52.760Z,60.42
2022-08-11T23:52:15.478Z,60.44
2022-08-11T23:54:37.756Z,61.57
2022-08-11T23:56:58.861Z,61.83
2022-08-11T23:59:21.351Z,62.23
